Terminal Aerodrome Forecast
Issued by NWS Louisville, KY

Home | Current Version | Previous Version | Text Only | Print | Product List | Glossary On
Versions: 1 2 3 4 5 6 7 8 9 10 11 12 13 14 15 16 17 18
097
FTUS43 KLMK 110234 AAA
TAFBWG
TAF AMD
KBWG 110234Z 1103/1124 27005KT P6SM VCSH BKN045
     FM110500 VRB03KT P6SM BKN030
     FM111100 VRB04KT P6SM BKN035=

USA.gov is the U.S. government's official web portal to all federal, state and local government web resources and services.